sensor_id;sensor_type;location;lat;lon;timestamp;pressure;altitude;pressure_sealevel;temperature;humidity
9009;BME280;62813;51.424;6.762;2023-03-23T00:01:19;100169.75;;;12.37;81.12
9009;BME280;62813;51.424;6.762;2023-03-23T00:03:49;100163.53;;;12.40;80.85
9009;BME280;62813;51.424;6.762;2023-03-23T00:06:20;100152.22;;;12.41;80.89
9009;BME280;62813;51.424;6.762;2023-03-23T00:08:49;100149.59;;;12.41;80.74
9009;BME280;62813;51.424;6.762;2023-03-23T00:11:28;100144.22;;;12.44;80.34
9009;BME280;62813;51.424;6.762;2023-03-23T00:13:57;100154.63;;;12.44;79.98
9009;BME280;62813;51.424;6.762;2023-03-23T00:16:30;100148.59;;;12.43;80.09
9009;BME280;62813;51.424;6.762;2023-03-23T00:19:05;100154.63;;;12.44;80.19
9009;BME280;62813;51.424;6.762;2023-03-23T00:21:34;100145.97;;;12.43;80.37
9009;BME280;62813;51.424;6.762;2023-03-23T00:24:07;100131.94;;;12.46;79.72
9009;BME280;62813;51.424;6.762;2023-03-23T00:26:36;100134.63;;;12.44;80.35
9009;BME280;62813;51.424;6.762;2023-03-23T00:29:19;100135.47;;;12.45;80.29
9009;BME280;62813;51.424;6.762;2023-03-23T00:31:48;100132.97;;;12.43;80.07
9009;BME280;62813;51.424;6.762;2023-03-23T00:34:17;100127.03;;;12.41;80.50
9009;BME280;62813;51.424;6.762;2023-03-23T00:36:50;100142.63;;;12.41;80.35
9009;BME280;62813;51.424;6.762;2023-03-23T00:39:17;100139.34;;;12.38;80.86
9009;BME280;62813;51.424;6.762;2023-03-23T00:41:46;100137.69;;;12.37;80.75
9009;BME280;62813;51.424;6.762;2023-03-23T00:44:13;100140.38;;;12.35;81.06
9009;BME280;62813;51.424;6.762;2023-03-23T00:46:48;100136.84;;;12.36;80.82
9009;BME280;62813;51.424;6.762;2023-03-23T00:49:18;100136.00;;;12.36;81.11
9009;BME280;62813;51.424;6.762;2023-03-23T00:51:47;100127.28;;;12.37;80.77
9009;BME280;62813;51.424;6.762;2023-03-23T00:54:14;100125.59;;;12.36;81.31
9009;BME280;62813;51.424;6.762;2023-03-23T00:56:40;100130.81;;;12.36;81.44
9009;BME280;62813;51.424;6.762;2023-03-23T00:59:07;100118.72;;;12.35;81.32
9009;BME280;62813;51.424;6.762;2023-03-23T01:01:34;100123.75;;;12.38;81.49
9009;BME280;62813;51.424;6.762;2023-03-23T01:04:02;100126.44;;;12.36;81.46
9009;BME280;62813;51.424;6.762;2023-03-23T01:06:35;100128.13;;;12.37;81.09
9009;BME280;62813;51.424;6.762;2023-03-23T01:09:10;100133.22;;;12.39;81.16
9009;BME280;62813;51.424;6.762;2023-03-23T01:11:38;100138.44;;;12.39;81.05
9009;BME280;62813;51.424;6.762;2023-03-23T01:14:05;100133.22;;;12.39;80.82
9009;BME280;62813;51.424;6.762;2023-03-23T01:16:32;100134.06;;;12.39;80.94
9009;BME280;62813;51.424;6.762;2023-03-23T01:18:58;100135.81;;;12.39;80.59
9009;BME280;62813;51.424;6.762;2023-03-23T01:21:25;100128.94;;;12.38;80.80
9009;BME280;62813;51.424;6.762;2023-03-23T01:23:52;100120.97;;;12.41;80.99
9009;BME280;62813;51.424;6.762;2023-03-23T01:26:22;100112.41;;;12.39;80.75
9009;BME280;62813;51.424;6.762;2023-03-23T01:28:49;100088.16;;;12.38;80.84
9009;BME280;62813;51.424;6.762;2023-03-23T01:31:19;100071.69;;;12.38;80.84
9009;BME280;62813;51.424;6.762;2023-03-23T01:33:48;100074.28;;;12.38;80.98
9009;BME280;62813;51.424;6.762;2023-03-23T01:36:20;100075.97;;;12.39;80.63
9009;BME280;62813;51.424;6.762;2023-03-23T01:38:48;100093.19;;;12.41;80.55
9009;BME280;62813;51.424;6.762;2023-03-23T01:41:16;100071.44;;;12.42;80.13
9009;BME280;62813;51.424;6.762;2023-03-23T01:46:43;100058.31;;;12.44;79.78
9009;BME280;62813;51.424;6.762;2023-03-23T01:49:13;100035.72;;;12.44;80.39
9009;BME280;62813;51.424;6.762;2023-03-23T01:51:53;100044.47;;;12.43;80.24
9009;BME280;62813;51.424;6.762;2023-03-23T01:54:25;100063.53;;;12.44;80.24
9009;BME280;62813;51.424;6.762;2023-03-23T01:59:21;100073.84;;;12.45;80.54
9009;BME280;62813;51.424;6.762;2023-03-23T02:01:50;100064.19;;;12.47;80.34
9009;BME280;62813;51.424;6.762;2023-03-23T02:04:19;100078.03;;;12.48;80.31
9009;BME280;62813;51.424;6.762;2023-03-23T02:06:49;100070.25;;;12.48;80.45
9009;BME280;62813;51.424;6.762;2023-03-23T02:09:17;100060.75;;;12.47;80.77
9009;BME280;62813;51.424;6.762;2023-03-23T02:11:52;100076.38;;;12.47;80.68
9009;BME280;62813;51.424;6.762;2023-03-23T02:14:20;100068.56;;;12.47;80.95
9009;BME280;62813;51.424;6.762;2023-03-23T02:17:25;100073.00;;;12.45;81.33
9009;BME280;62813;51.424;6.762;2023-03-23T02:20:23;100059.25;;;12.43;81.77
9009;BME280;62813;51.424;6.762;2023-03-23T02:28:04;100055.50;;;12.33;82.84
9009;BME280;62813;51.424;6.762;2023-03-23T02:41:23;100011.19;;;12.20;83.90
9009;BME280;62813;51.424;6.762;2023-03-23T02:43:51;100019.06;;;12.18;83.67
9009;BME280;62813;51.424;6.762;2023-03-23T02:46:21;100026.13;;;12.16;84.12
9009;BME280;62813;51.424;6.762;2023-03-23T02:48:50;100029.66;;;12.15;84.48
9009;BME280;62813;51.424;6.762;2023-03-23T02:51:19;100034.84;;;12.15;84.51
9009;BME280;62813;51.424;6.762;2023-03-23T02:53:49;100042.84;;;12.12;84.37
9009;BME280;62813;51.424;6.762;2023-03-23T02:56:17;100038.56;;;12.11;84.61
9009;BME280;62813;51.424;6.762;2023-03-23T02:58:45;100041.16;;;12.11;84.15
9009;BME280;62813;51.424;6.762;2023-03-23T03:03:54;100033.53;;;12.08;84.52
9009;BME280;62813;51.424;6.762;2023-03-23T03:09:30;100036.97;;;12.09;84.45
9009;BME280;62813;51.424;6.762;2023-03-23T03:12:15;100032.63;;;12.09;84.23
9009;BME280;62813;51.424;6.762;2023-03-23T03:14:54;100031.69;;;12.10;84.08
9009;BME280;62813;51.424;6.762;2023-03-23T03:17:26;100043.75;;;12.11;84.14
9009;BME280;62813;51.424;6.762;2023-03-23T03:20:02;100030.69;;;12.13;83.74
9009;BME280;62813;51.424;6.762;2023-03-23T03:22:35;100022.78;;;12.14;83.81
9009;BME280;62813;51.424;6.762;2023-03-23T03:25:05;100022.78;;;12.14;83.49
9009;BME280;62813;51.424;6.762;2023-03-23T03:27:45;100014.16;;;12.14;83.21
9009;BME280;62813;51.424;6.762;2023-03-23T03:30:17;100009.78;;;12.14;82.97
9009;BME280;62813;51.424;6.762;2023-03-23T03:32:49;100012.28;;;12.16;83.00
9009;BME280;62813;51.424;6.762;2023-03-23T03:35:22;100016.56;;;12.17;82.48
9009;BME280;62813;51.424;6.762;2023-03-23T03:37:50;100006.25;;;12.15;82.30
9009;BME280;62813;51.424;6.762;2023-03-23T03:40:20;100019.25;;;12.15;82.28
9009;BME280;62813;51.424;6.762;2023-03-23T03:42:47;100019.06;;;12.18;82.31
9009;BME280;62813;51.424;6.762;2023-03-23T03:45:17;100013.03;;;12.18;82.33
9009;BME280;62813;51.424;6.762;2023-03-23T03:47:45;100009.53;;;12.19;82.26
9009;BME280;62813;51.424;6.762;2023-03-23T03:50:14;100024.25;;;12.18;82.01
9009;BME280;62813;51.424;6.762;2023-03-23T03:52:41;100011.19;;;12.20;82.08
9009;BME280;62813;51.424;6.762;2023-03-23T03:55:09;100014.63;;;12.20;82.08
9009;BME280;62813;51.424;6.762;2023-03-23T03:57:36;100013.69;;;12.21;81.92
9009;BME280;62813;51.424;6.762;2023-03-23T04:00:05;100017.13;;;12.22;81.95
9009;BME280;62813;51.424;6.762;2023-03-23T04:02:44;100016.09;;;12.24;81.85
9009;BME280;62813;51.424;6.762;2023-03-23T04:05:14;100022.13;;;12.25;81.73
9009;BME280;62813;51.424;6.762;2023-03-23T04:07:40;100017.69;;;12.27;81.74
9009;BME280;62813;51.424;6.762;2023-03-23T04:10:10;100020.31;;;12.27;82.10
9009;BME280;62813;51.424;6.762;2023-03-23T04:12:58;100021.13;;;12.28;81.61
9009;BME280;62813;51.424;6.762;2023-03-23T04:15:25;100015.00;;;12.29;81.64
9009;BME280;62813;51.424;6.762;2023-03-23T04:17:54;100020.19;;;12.29;81.89
9009;BME280;62813;51.424;6.762;2023-03-23T04:20:24;100017.59;;;12.29;81.71
9009;BME280;62813;51.424;6.762;2023-03-23T04:22:57;100025.41;;;12.29;81.65
9009;BME280;62813;51.424;6.762;2023-03-23T04:25:24;100021.03;;;12.29;81.66
9009;BME280;62813;51.424;6.762;2023-03-23T04:27:51;100030.59;;;12.29;81.70
9009;BME280;62813;51.424;6.762;2023-03-23T04:30:23;100031.34;;;12.31;81.98
9009;BME280;62813;51.424;6.762;2023-03-23T04:32:51;100031.34;;;12.31;81.51
9009;BME280;62813;51.424;6.762;2023-03-23T04:35:24;100030.41;;;12.32;81.44
9009;BME280;62813;51.424;6.762;2023-03-23T04:37:55;100036.44;;;12.32;81.49
9009;BME280;62813;51.424;6.762;2023-03-23T04:40:23;100034.69;;;12.33;81.67
9009;BME280;62813;51.424;6.762;2023-03-23T04:42:50;100033.78;;;12.34;80.91
9009;BME280;62813;51.424;6.762;2023-03-23T04:45:20;100031.09;;;12.35;81.02
9009;BME280;62813;51.424;6.762;2023-03-23T04:47:51;100030.16;;;12.36;81.44
9009;BME280;62813;51.424;6.762;2023-03-23T04:50:28;100034.63;;;12.34;81.55
9009;BME280;62813;51.424;6.762;2023-03-23T04:52:57;100051.06;;;12.35;81.33
9009;BME280;62813;51.424;6.762;2023-03-23T04:55:25;100052.00;;;12.34;80.98
9009;BME280;62813;51.424;6.762;2023-03-23T04:57:52;100052.00;;;12.34;81.10
9009;BME280;62813;51.424;6.762;2023-03-23T05:00:19;100054.59;;;12.34;81.26
9009;BME280;62813;51.424;6.762;2023-03-23T05:02:47;100050.22;;;12.34;81.25
9009;BME280;62813;51.424;6.762;2023-03-23T05:05:19;100061.47;;;12.35;80.92
9009;BME280;62813;51.424;6.762;2023-03-23T05:07:46;100056.28;;;12.35;81.05
9009;BME280;62813;51.424;6.762;2023-03-23T05:10:23;100054.50;;;12.35;80.95
9009;BME280;62813;51.424;6.762;2023-03-23T05:12:52;100054.59;;;12.34;80.90
9009;BME280;62813;51.424;6.762;2023-03-23T05:15:19;100056.28;;;12.35;81.00
9009;BME280;62813;51.424;6.762;2023-03-23T05:17:46;100063.25;;;12.34;80.60
9009;BME280;62813;51.424;6.762;2023-03-23T05:20:14;100061.47;;;12.35;80.31
9009;BME280;62813;51.424;6.762;2023-03-23T05:22:44;100063.16;;;12.36;80.52
9009;BME280;62813;51.424;6.762;2023-03-23T05:25:11;100065.84;;;12.34;80.35
9009;BME280;62813;51.424;6.762;2023-03-23T05:27:38;100062.22;;;12.37;80.80
9009;BME280;62813;51.424;6.762;2023-03-23T05:30:05;100071.88;;;12.35;80.36
9009;BME280;62813;51.424;6.762;2023-03-23T05:32:33;100063.97;;;12.36;80.45
9009;BME280;62813;51.424;6.762;2023-03-23T05:35:00;100068.34;;;12.36;80.20
9009;BME280;62813;51.424;6.762;2023-03-23T05:37:28;100074.28;;;12.38;80.46
9009;BME280;62813;51.424;6.762;2023-03-23T05:39:59;100076.06;;;12.37;80.40
9009;BME280;62813;51.424;6.762;2023-03-23T05:42:35;100080.44;;;12.37;80.32
9009;BME280;62813;51.424;6.762;2023-03-23T05:45:06;100073.56;;;12.36;80.85
9009;BME280;62813;51.424;6.762;2023-03-23T05:47:33;100067.41;;;12.37;80.56
9009;BME280;62813;51.424;6.762;2023-03-23T05:50:00;100078.56;;;12.39;80.63
9009;BME280;62813;51.424;6.762;2023-03-23T05:52:27;100069.09;;;12.38;80.48
9009;BME280;62813;51.424;6.762;2023-03-23T05:54:53;100076.72;;;12.41;80.41
9009;BME280;62813;51.424;6.762;2023-03-23T05:57:20;100080.25;;;12.40;80.65
9009;BME280;62813;51.424;6.762;2023-03-23T05:59:48;100076.81;;;12.39;80.43
9009;BME280;62813;51.424;6.762;2023-03-23T06:02:15;100076.91;;;12.38;80.77
9009;BME280;62813;51.424;6.762;2023-03-23T06:04:43;100075.22;;;12.37;80.17
9009;BME280;62813;51.424;6.762;2023-03-23T06:07:12;100081.25;;;12.37;80.16
9009;BME280;62813;51.424;6.762;2023-03-23T06:09:41;100081.75;;;12.44;80.82
9009;BME280;62813;51.424;6.762;2023-03-23T06:12:10;100084.41;;;12.58;81.02
9009;BME280;62813;51.424;6.762;2023-03-23T06:14:37;100081.44;;;12.64;79.93
9009;BME280;62813;51.424;6.762;2023-03-23T06:17:04;100091.94;;;12.63;79.39
9009;BME280;62813;51.424;6.762;2023-03-23T06:19:32;100090.28;;;12.62;79.39
9009;BME280;62813;51.424;6.762;2023-03-23T06:22:00;100086.25;;;12.56;79.32
9009;BME280;62813;51.424;6.762;2023-03-23T06:24:28;100098.53;;;12.54;79.48
9009;BME280;62813;51.424;6.762;2023-03-23T06:26:55;100105.41;;;12.55;79.38
9009;BME280;62813;51.424;6.762;2023-03-23T06:29:22;100096.09;;;12.51;79.12
9009;BME280;62813;51.424;6.762;2023-03-23T06:31:53;100093.66;;;12.48;79.68
9009;BME280;62813;51.424;6.762;2023-03-23T06:34:22;100104.06;;;12.48;79.52
9009;BME280;62813;51.424;6.762;2023-03-23T06:36:49;100099.69;;;12.48;79.18
9009;BME280;62813;51.424;6.762;2023-03-23T06:39:19;100098.09;;;12.46;79.07
9009;BME280;62813;51.424;6.762;2023-03-23T06:41:45;100097.09;;;12.48;79.01
9009;BME280;62813;51.424;6.762;2023-03-23T06:44:12;100099.59;;;12.50;79.01
9009;BME280;62813;51.424;6.762;2023-03-23T06:46:50;100107.59;;;12.47;78.48
9009;BME280;62813;51.424;6.762;2023-03-23T06:49:17;100104.06;;;12.48;78.41
9009;BME280;62813;51.424;6.762;2023-03-23T06:51:47;100096.84;;;12.53;78.89
9009;BME280;62813;51.424;6.762;2023-03-23T06:54:14;100100.13;;;12.57;78.72
9009;BME280;62813;51.424;6.762;2023-03-23T06:56:41;100101.97;;;12.55;78.60
9009;BME280;62813;51.424;6.762;2023-03-23T06:59:07;100104.47;;;12.56;77.94
9009;BME280;62813;51.424;6.762;2023-03-23T07:01:35;100110.25;;;12.61;77.88
9009;BME280;62813;51.424;6.762;2023-03-23T07:04:03;100113.13;;;12.57;77.98
9009;BME280;62813;51.424;6.762;2023-03-23T07:06:30;100108.50;;;12.62;77.61
9009;BME280;62813;51.424;6.762;2023-03-23T07:08:57;100110.91;;;12.65;77.37
9009;BME280;62813;51.424;6.762;2023-03-23T07:11:24;100125.97;;;12.74;77.20
9009;BME280;62813;51.424;6.762;2023-03-23T07:13:51;100127.00;;;12.71;76.70
9009;BME280;62813;51.424;6.762;2023-03-23T07:16:18;100133.69;;;12.61;77.05
9009;BME280;62813;51.424;6.762;2023-03-23T07:18:45;100139.66;;;12.63;77.33
9009;BME280;62813;51.424;6.762;2023-03-23T07:21:12;100137.97;;;12.62;76.79
9009;BME280;62813;51.424;6.762;2023-03-23T07:23:39;100137.03;;;12.63;77.05
9009;BME280;62813;51.424;6.762;2023-03-23T07:26:07;100132.56;;;12.65;77.06
9009;BME280;62813;51.424;6.762;2023-03-23T07:28:34;100138.50;;;12.67;76.87
9009;BME280;62813;51.424;6.762;2023-03-23T07:31:00;100137.63;;;12.68;77.42
9009;BME280;62813;51.424;6.762;2023-03-23T07:33:27;100138.50;;;12.67;77.05
9009;BME280;62813;51.424;6.762;2023-03-23T07:35:53;100135.00;;;12.68;76.61
9009;BME280;62813;51.424;6.762;2023-03-23T07:38:20;100130.25;;;12.75;76.56
9009;BME280;62813;51.424;6.762;2023-03-23T07:40:47;100136.84;;;12.66;76.78
9009;BME280;62813;51.424;6.762;2023-03-23T07:43:13;100137.97;;;12.62;76.95
9009;BME280;62813;51.424;6.762;2023-03-23T07:45:42;100140.38;;;12.65;76.69
9009;BME280;62813;51.424;6.762;2023-03-23T07:48:12;100141.31;;;12.64;76.42
9009;BME280;62813;51.424;6.762;2023-03-23T07:50:46;100146.25;;;12.69;76.41
9009;BME280;62813;51.424;6.762;2023-03-23T07:53:13;100145.97;;;12.73;76.41
9009;BME280;62813;51.424;6.762;2023-03-23T07:55:40;100141.13;;;12.67;76.56
9009;BME280;62813;51.424;6.762;2023-03-23T07:58:06;100138.72;;;12.64;76.58
9009;BME280;62813;51.424;6.762;2023-03-23T08:00:33;100132.41;;;12.68;76.45
9009;BME280;62813;51.424;6.762;2023-03-23T08:03:04;100137.31;;;12.73;75.99
9009;BME280;62813;51.424;6.762;2023-03-23T08:05:32;100146.91;;;12.72;76.11
9009;BME280;62813;51.424;6.762;2023-03-23T08:08:00;100145.13;;;12.73;76.26
9009;BME280;62813;51.424;6.762;2023-03-23T08:10:27;100147.63;;;12.74;76.06
9009;BME280;62813;51.424;6.762;2023-03-23T08:12:55;100145.34;;;12.84;75.80
9009;BME280;62813;51.424;6.762;2023-03-23T08:15:23;100142.84;;;12.83;75.58
9009;BME280;62813;51.424;6.762;2023-03-23T08:17:50;100150.44;;;12.86;75.91
9009;BME280;62813;51.424;6.762;2023-03-23T08:20:18;100145.03;;;12.89;75.84
9009;BME280;62813;51.424;6.762;2023-03-23T08:22:50;100138.25;;;12.86;74.77
9009;BME280;62813;51.424;6.762;2023-03-23T08:25:19;100132.22;;;12.86;74.86
9009;BME280;62813;51.424;6.762;2023-03-23T08:27:46;100145.03;;;12.89;75.09
9009;BME280;62813;51.424;6.762;2023-03-23T08:30:15;100141.34;;;12.93;74.36
9009;BME280;62813;51.424;6.762;2023-03-23T08:32:43;100144.69;;;12.95;73.99
9009;BME280;62813;51.424;6.762;2023-03-23T08:35:10;100152.31;;;12.98;73.69
9009;BME280;62813;51.424;6.762;2023-03-23T08:37:38;100160.78;;;13.01;73.31
9009;BME280;62813;51.424;6.762;2023-03-23T08:40:05;100152.50;;;13.09;73.18
9009;BME280;62813;51.424;6.762;2023-03-23T08:42:40;100158.28;;;13.14;72.43
9009;BME280;62813;51.424;6.762;2023-03-23T08:45:12;100146.19;;;13.13;72.48
9009;BME280;62813;51.424;6.762;2023-03-23T08:47:39;100165.34;;;13.12;72.61
9009;BME280;62813;51.424;6.762;2023-03-23T08:50:08;100144.63;;;13.11;72.19
9009;BME280;62813;51.424;6.762;2023-03-23T08:52:37;100153.44;;;13.08;72.88
9009;BME280;62813;51.424;6.762;2023-03-23T08:55:05;100158.53;;;13.10;72.81
9009;BME280;62813;51.424;6.762;2023-03-23T08:57:31;100165.81;;;13.04;72.65
9009;BME280;62813;51.424;6.762;2023-03-23T08:59:58;100166.66;;;13.05;73.00
9009;BME280;62813;51.424;6.762;2023-03-23T09:02:26;100162.38;;;13.04;72.38
9009;BME280;62813;51.424;6.762;2023-03-23T09:04:54;100169.16;;;13.06;72.13
9009;BME280;62813;51.424;6.762;2023-03-23T09:07:21;100170.38;;;13.01;71.61
9009;BME280;62813;51.424;6.762;2023-03-23T09:09:47;100166.09;;;13.00;72.16
9009;BME280;62813;51.424;6.762;2023-03-23T09:12:14;100166.81;;;13.02;72.11
9009;BME280;62813;51.424;6.762;2023-03-23T09:14:44;100164.41;;;12.99;72.01
9009;BME280;62813;51.424;6.762;2023-03-23T09:17:12;100174.94;;;12.97;72.08
9009;BME280;62813;51.424;6.762;2023-03-23T09:19:39;100171.50;;;12.97;72.43
9009;BME280;62813;51.424;6.762;2023-03-23T09:22:07;100168.69;;;13.00;72.40
9009;BME280;62813;51.424;6.762;2023-03-23T09:24:34;100177.44;;;12.99;72.25
9009;BME280;62813;51.424;6.762;2023-03-23T09:27:01;100184.22;;;13.01;71.88
9009;BME280;62813;51.424;6.762;2023-03-23T09:29:27;100171.31;;;13.00;72.47
9009;BME280;62813;51.424;6.762;2023-03-23T09:31:54;100182.38;;;13.03;71.98
9009;BME280;62813;51.424;6.762;2023-03-23T09:34:22;100194.47;;;13.04;72.58
9009;BME280;62813;51.424;6.762;2023-03-23T09:36:49;100187.66;;;13.02;73.93
9009;BME280;62813;51.424;6.762;2023-03-23T09:39:16;100246.13;;;12.98;75.65
9009;BME280;62813;51.424;6.762;2023-03-23T09:42:06;100248.47;;;12.72;79.60
9009;BME280;62813;51.424;6.762;2023-03-23T09:48:05;100266.28;;;12.33;81.74
9009;BME280;62813;51.424;6.762;2023-03-23T09:50:35;100269.75;;;12.17;82.32
9009;BME280;62813;51.424;6.762;2023-03-23T09:53:12;100269.66;;;12.03;81.84
9009;BME280;62813;51.424;6.762;2023-03-23T09:55:41;100265.47;;;11.85;81.52
9009;BME280;62813;51.424;6.762;2023-03-23T09:58:26;100268.09;;;11.85;83.37
9009;BME280;62813;51.424;6.762;2023-03-23T10:01:00;100281.75;;;11.88;83.63
9009;BME280;62813;51.424;6.762;2023-03-23T10:03:38;100291.31;;;11.88;83.55
9009;BME280;62813;51.424;6.762;2023-03-23T10:06:09;100287.69;;;11.75;83.40
9009;BME280;62813;51.424;6.762;2023-03-23T10:08:45;100285.09;;;11.75;84.24
9009;BME280;62813;51.424;6.762;2023-03-23T10:19:42;100296.00;;;11.81;84.83
9009;BME280;62813;51.424;6.762;2023-03-23T10:22:14;100305.16;;;11.88;85.65
9009;BME280;62813;51.424;6.762;2023-03-23T10:24:49;100311.19;;;11.89;85.79
9009;BME280;62813;51.424;6.762;2023-03-23T10:27:29;100312.13;;;11.88;86.63
9009;BME280;62813;51.424;6.762;2023-03-23T10:30:03;100308.25;;;11.95;86.08
9009;BME280;62813;51.424;6.762;2023-03-23T10:35:14;100312.03;;;11.89;85.80
9009;BME280;62813;51.424;6.762;2023-03-23T10:37:48;100301.72;;;11.88;85.18
9009;BME280;62813;51.424;6.762;2023-03-23T10:40:20;100303.88;;;11.80;83.28
9009;BME280;62813;51.424;6.762;2023-03-23T10:42:50;100300.97;;;11.86;83.65
9009;BME280;62813;51.424;6.762;2023-03-23T10:45:24;100300.31;;;11.98;83.40
9009;BME280;62813;51.424;6.762;2023-03-23T10:47:57;100295.94;;;11.98;83.96
9009;BME280;62813;51.424;6.762;2023-03-23T10:50:31;100306.16;;;11.86;84.34
9009;BME280;62813;51.424;6.762;2023-03-23T10:53:00;100309.41;;;11.74;83.75
9009;BME280;62813;51.424;6.762;2023-03-23T10:55:38;100302.34;;;11.76;84.39
9009;BME280;62813;51.424;6.762;2023-03-23T10:58:12;100302.22;;;11.79;84.09
9009;BME280;62813;51.424;6.762;2023-03-23T11:00:45;100312.19;;;11.70;84.09
9009;BME280;62813;51.424;6.762;2023-03-23T11:05:51;100313.88;;;11.54;84.72
9009;BME280;62813;51.424;6.762;2023-03-23T11:08:22;100312.38;;;11.50;84.55
9009;BME280;62813;51.424;6.762;2023-03-23T11:10:54;100305.50;;;11.49;85.21
9009;BME280;62813;51.424;6.762;2023-03-23T11:13:23;100311.75;;;11.62;84.79
9009;BME280;62813;51.424;6.762;2023-03-23T11:15:53;100306.91;;;11.72;85.35
9009;BME280;62813;51.424;6.762;2023-03-23T11:18:26;100300.53;;;11.78;85.46
9009;BME280;62813;51.424;6.762;2023-03-23T11:20:56;100302.44;;;11.74;84.95
9009;BME280;62813;51.424;6.762;2023-03-23T11:23:27;100305.88;;;11.75;85.05
9009;BME280;62813;51.424;6.762;2023-03-23T11:25:56;100294.50;;;11.77;84.95
9009;BME280;62813;51.424;6.762;2023-03-23T11:28:32;100315.47;;;11.90;84.59
9009;BME280;62813;51.424;6.762;2023-03-23T11:31:02;100306.16;;;11.86;84.88
9009;BME280;62813;51.424;6.762;2023-03-23T11:33:36;100310.34;;;11.88;85.09
9009;BME280;62813;51.424;6.762;2023-03-23T11:36:06;100305.06;;;11.90;86.22
9009;BME280;62813;51.424;6.762;2023-03-23T11:38:34;100289.72;;;12.01;85.32
9009;BME280;62813;51.424;6.762;2023-03-23T11:41:11;100272.22;;;12.05;85.46
9009;BME280;62813;51.424;6.762;2023-03-23T11:43:44;100290.84;;;12.13;85.68
9009;BME280;62813;51.424;6.762;2023-03-23T11:46:26;100282.44;;;12.23;85.65
9009;BME280;62813;51.424;6.762;2023-03-23T11:49:03;100283.59;;;12.02;86.79
9009;BME280;62813;51.424;6.762;2023-03-23T11:51:54;100283.59;;;11.86;87.01
9009;BME280;62813;51.424;6.762;2023-03-23T11:54:30;100290.66;;;11.84;87.71
9009;BME280;62813;51.424;6.762;2023-03-23T11:56:59;100290.13;;;11.78;87.67
9009;BME280;62813;51.424;6.762;2023-03-23T11:59:32;100299.50;;;11.64;88.18
9009;BME280;62813;51.424;6.762;2023-03-23T12:21:30;100296.84;;;11.82;88.88
9009;BME280;62813;51.424;6.762;2023-03-23T12:24:13;100301.19;;;11.81;88.82
9009;BME280;62813;51.424;6.762;2023-03-23T12:30:12;100299.81;;;11.91;89.23
9009;BME280;62813;51.424;6.762;2023-03-23T12:33:33;100293.25;;;12.00;89.88
9009;BME280;62813;51.424;6.762;2023-03-23T12:41:15;100291.91;;;12.24;89.52
9009;BME280;62813;51.424;6.762;2023-03-23T12:43:58;100285.84;;;12.40;89.40
9009;BME280;62813;51.424;6.762;2023-03-23T12:54:52;100280.31;;;12.46;88.55
9009;BME280;62813;51.424;6.762;2023-03-23T13:02:49;100286.78;;;12.39;89.61
9009;BME280;62813;51.424;6.762;2023-03-23T13:07:59;100266.97;;;12.52;89.40
9009;BME280;62813;51.424;6.762;2023-03-23T13:10:52;100263.59;;;12.50;88.84
9009;BME280;62813;51.424;6.762;2023-03-23T13:13:26;100269.16;;;12.44;88.68
9009;BME280;62813;51.424;6.762;2023-03-23T13:15:59;100270.34;;;12.54;89.05
9009;BME280;62813;51.424;6.762;2023-03-23T13:18:52;100261.28;;;12.61;88.47
9009;BME280;62813;51.424;6.762;2023-03-23T13:21:36;100245.13;;;12.70;88.27
9009;BME280;62813;51.424;6.762;2023-03-23T13:24:13;100244.41;;;12.83;87.19
9009;BME280;62813;51.424;6.762;2023-03-23T13:26:42;100250.09;;;12.89;87.56
9009;BME280;62813;51.424;6.762;2023-03-23T13:29:14;100244.78;;;12.91;86.60
9009;BME280;62813;51.424;6.762;2023-03-23T13:31:43;100242.00;;;12.94;86.24
9009;BME280;62813;51.424;6.762;2023-03-23T13:36:42;100251.69;;;12.92;85.77
9009;BME280;62813;51.424;6.762;2023-03-23T13:39:21;100253.72;;;13.01;85.64
9009;BME280;62813;51.424;6.762;2023-03-23T13:44:39;100250.78;;;13.21;84.73
9009;BME280;62813;51.424;6.762;2023-03-23T13:49:51;100248.09;;;13.37;84.61
9009;BME280;62813;51.424;6.762;2023-03-23T13:55:36;100281.06;;;13.52;84.15
9009;BME280;62813;51.424;6.762;2023-03-23T14:11:01;100259.34;;;13.52;84.57
9009;BME280;62813;51.424;6.762;2023-03-23T14:13:36;100254.53;;;13.46;85.01
9009;BME280;62813;51.424;6.762;2023-03-23T14:16:31;100256.28;;;13.45;84.27
9009;BME280;62813;51.424;6.762;2023-03-23T14:19:00;100258.81;;;13.61;84.44
9009;BME280;62813;51.424;6.762;2023-03-23T14:23:54;100236.34;;;13.73;85.02
9009;BME280;62813;51.424;6.762;2023-03-23T14:26:33;100246.69;;;13.74;84.97
9009;BME280;62813;51.424;6.762;2023-03-23T14:29:04;100239.63;;;13.62;84.60
9009;BME280;62813;51.424;6.762;2023-03-23T14:31:32;100250.63;;;13.53;85.32
9009;BME280;62813;51.424;6.762;2023-03-23T14:34:03;100234.78;;;13.42;85.43
9009;BME280;62813;51.424;6.762;2023-03-23T14:36:31;100233.59;;;13.47;85.44
9009;BME280;62813;51.424;6.762;2023-03-23T14:39:05;100232.91;;;13.44;85.44
9009;BME280;62813;51.424;6.762;2023-03-23T14:41:34;100233.84;;;13.43;86.21
9009;BME280;62813;51.424;6.762;2023-03-23T14:44:05;100234.53;;;13.46;85.49
9009;BME280;62813;51.424;6.762;2023-03-23T14:46:32;100234.03;;;13.54;85.33
9009;BME280;62813;51.424;6.762;2023-03-23T14:49:04;100234.56;;;13.59;84.14
9009;BME280;62813;51.424;6.762;2023-03-23T14:51:32;100240.91;;;13.69;84.32
9009;BME280;62813;51.424;6.762;2023-03-23T14:53:59;100241.09;;;13.66;83.38
9009;BME280;62813;51.424;6.762;2023-03-23T14:56:35;100241.03;;;13.68;83.36
9009;BME280;62813;51.424;6.762;2023-03-23T14:59:05;100243.25;;;13.74;82.53
9009;BME280;62813;51.424;6.762;2023-03-23T15:01:34;100225.84;;;13.74;81.48
9009;BME280;62813;51.424;6.762;2023-03-23T15:06:40;100204.47;;;13.82;81.58
9009;BME280;62813;51.424;6.762;2023-03-23T15:09:12;100197.59;;;13.81;80.50
9009;BME280;62813;51.424;6.762;2023-03-23T15:11:41;100197.50;;;13.82;79.79
9009;BME280;62813;51.424;6.762;2023-03-23T15:15:02;100190.78;;;13.93;79.30
9009;BME280;62813;51.424;6.762;2023-03-23T15:17:27;100184.97;;;14.02;78.57